RJNF(METAR)
08/23 16:00
RJNF 230700Z 29005KT 9999 FEW030 BKNXXX 27/22 Q1007 RMK A2974=
戻る
トップページへ戻る
IMOC Co,.Ltd.